createdAt,value
2022-09-26T00:00:22.562Z,11.25
2022-09-26T00:05:24.261Z,10.15
2022-09-26T00:10:25.955Z,9.52
2022-09-26T00:15:27.721Z,9.27
2022-09-26T00:20:29.361Z,6.57
2022-09-26T00:25:30.997Z,7.60
2022-09-26T00:30:36.034Z,7.88
2022-09-26T00:35:38.189Z,10.60
2022-09-26T00:40:39.896Z,12.50
2022-09-26T00:45:41.747Z,9.63
2022-09-26T00:50:43.955Z,7.30
2022-09-26T00:55:58.301Z,9.98
2022-09-26T01:01:00.871Z,6.97
2022-09-26T01:06:03.024Z,6.18
2022-09-26T01:11:05.969Z,5.60
2022-09-26T01:16:07.849Z,6.82
2022-09-26T01:21:27.569Z,14.75
2022-09-26T01:27:09.344Z,6.03
2022-09-26T01:32:49.702Z,9.18
2022-09-26T01:38:00.583Z,6.32
2022-09-26T01:43:39.928Z,8.88
2022-09-26T01:48:49.614Z,5.63
2022-09-26T01:54:08.775Z,10.05
2022-09-26T01:59:22.532Z,5.53
2022-09-26T02:04:30.956Z,7.93
2022-09-26T02:09:52.175Z,10.68
2022-09-26T02:14:56.630Z,10.38
2022-09-26T02:25:03.137Z,6.45
2022-09-26T02:30:06.987Z,9.60
2022-09-26T02:35:27.784Z,5.47
2022-09-26T02:41:00.141Z,5.93
2022-09-26T02:46:08.001Z,9.38
2022-09-26T02:51:37.971Z,5.80
2022-09-26T02:56:58.342Z,10.80
2022-09-26T03:02:14.323Z,4.28
2022-09-26T03:07:39.517Z,8.60
2022-09-26T03:12:44.576Z,6.43
2022-09-26T03:17:51.843Z,9.35
2022-09-26T03:22:53.624Z,7.88
2022-09-26T03:27:55.796Z,4.28
2022-09-26T03:32:57.545Z,6.63
2022-09-26T03:37:59.164Z,6.78
2022-09-26T03:43:00.822Z,8.30
2022-09-26T03:48:03.029Z,9.07
2022-09-26T03:53:06.586Z,7.35
2022-09-26T03:58:08.270Z,9.00
2022-09-26T04:03:10.360Z,8.02
2022-09-26T04:08:12.570Z,6.93
2022-09-26T04:13:33.669Z,10.48
2022-09-26T04:18:36.828Z,7.60
2022-09-26T04:23:40.683Z,8.25
2022-09-26T04:28:42.574Z,9.80
2022-09-26T04:33:45.081Z,8.52
2022-09-26T04:38:47.068Z,11.40
2022-09-26T04:43:49.328Z,11.35
2022-09-26T04:48:51.978Z,12.93
2022-09-26T04:53:53.817Z,13.02
2022-09-26T04:58:57.749Z,10.90
2022-09-26T05:03:59.461Z,10.52
2022-09-26T05:09:01.129Z,10.32
2022-09-26T05:14:04.044Z,11.80
2022-09-26T05:19:05.748Z,7.97
2022-09-26T05:24:27.699Z,12.65
2022-09-26T05:29:29.416Z,15.85
2022-09-26T05:34:31.232Z,9.07
2022-09-26T05:39:52.448Z,11.82
2022-09-26T05:44:54.115Z,10.55
2022-09-26T05:49:55.757Z,14.82
2022-09-26T05:54:57.420Z,12.70
2022-09-26T05:59:59.113Z,12.73
2022-09-26T06:05:00.832Z,11.85
2022-09-26T06:10:06.464Z,13.32
2022-09-26T06:15:11.091Z,11.13
2022-09-26T06:20:13.118Z,10.73
2022-09-26T06:25:15.084Z,9.98
2022-09-26T06:30:19.408Z,15.07
2022-09-26T06:35:21.851Z,10.88
2022-09-26T06:40:23.624Z,9.88
2022-09-26T06:45:26.485Z,14.40
2022-09-26T06:50:28.150Z,8.75
2022-09-26T06:55:29.962Z,9.80
2022-09-26T07:00:33.560Z,11.75
2022-09-26T07:05:35.331Z,8.87
2022-09-26T07:10:37.553Z,9.57
2022-09-26T07:15:40.031Z,9.68
2022-09-26T07:20:45.181Z,7.55
2022-09-26T07:25:47.704Z,11.02
2022-09-26T07:30:49.676Z,7.88
2022-09-26T07:35:52.076Z,7.80
2022-09-26T07:40:54.407Z,10.68
2022-09-26T07:46:14.911Z,6.30
2022-09-26T07:51:16.607Z,7.95
2022-09-26T07:56:18.440Z,6.28
2022-09-26T08:01:20.650Z,10.05
2022-09-26T08:06:23.845Z,6.38
2022-09-26T08:11:25.821Z,4.43
2022-09-26T08:16:28.623Z,3.38
2022-09-26T08:21:30.745Z,5.47
2022-09-26T08:26:32.485Z,3.88
2022-09-26T08:31:34.986Z,5.07
2022-09-26T08:36:37.048Z,2.30
2022-09-26T08:41:48.310Z,3.50
2022-09-26T08:47:02.793Z,2.72
2022-09-26T08:57:28.235Z,3.20
2022-09-26T09:02:41.241Z,2.85
2022-09-26T09:07:45.616Z,2.78
2022-09-26T09:13:11.193Z,3.17
2022-09-26T09:18:27.716Z,5.18
2022-09-26T09:23:41.693Z,3.38
2022-09-26T09:29:02.432Z,3.03
2022-09-26T09:34:09.342Z,3.90
2022-09-26T09:39:19.425Z,2.13
2022-09-26T09:44:44.339Z,4.65
2022-09-26T09:49:49.152Z,4.65
2022-09-26T09:55:31.071Z,3.60
2022-09-26T10:00:37.829Z,3.08
2022-09-26T10:05:41.613Z,5.78
2022-09-26T10:11:02.196Z,5.83
2022-09-26T10:16:08.545Z,14.10
2022-09-26T10:21:17.842Z,9.43
2022-09-26T10:26:37.104Z,5.78
2022-09-26T10:31:43.071Z,5.65
2022-09-26T10:36:45.048Z,7.22
2022-09-26T10:41:47.600Z,4.57
2022-09-26T10:46:52.150Z,3.83
2022-09-26T10:52:08.252Z,3.55
2022-09-26T10:57:21.064Z,4.65
2022-09-26T11:02:25.320Z,3.15
2022-09-26T11:07:31.904Z,6.93
2022-09-26T11:12:39.534Z,5.38
2022-09-26T11:17:49.635Z,3.53
2022-09-26T11:23:22.414Z,3.42
2022-09-26T11:28:36.128Z,3.78
2022-09-26T11:33:45.715Z,3.30
2022-09-26T11:38:55.457Z,3.35
2022-09-26T11:44:20.444Z,5.45
2022-09-26T11:49:31.117Z,4.97
2022-09-26T11:54:45.528Z,3.13
2022-09-26T12:00:02.093Z,3.85
2022-09-26T12:05:41.273Z,2.25
2022-09-26T12:11:15.383Z,1.40
2022-09-26T12:16:52.199Z,7.50
2022-09-26T12:22:31.635Z,2.92
2022-09-26T12:28:00.813Z,2.78
2022-09-26T12:33:36.604Z,2.03
2022-09-26T12:38:54.349Z,1.40
2022-09-26T12:44:23.181Z,2.45
2022-09-26T12:50:12.085Z,2.38
2022-09-26T12:55:56.387Z,2.80
2022-09-26T13:01:23.674Z,2.90
2022-09-26T13:07:02.335Z,2.45
2022-09-26T13:12:47.761Z,3.08
2022-09-26T13:18:02.829Z,6.20
2022-09-26T13:23:20.118Z,4.07
2022-09-26T13:28:47.528Z,3.20
2022-09-26T13:34:04.559Z,2.42
2022-09-26T13:39:39.923Z,2.28
2022-09-26T13:45:26.457Z,3.60
2022-09-26T13:50:46.553Z,6.93
2022-09-26T13:56:47.524Z,4.78
2022-09-26T14:02:29.974Z,4.47
2022-09-26T14:07:56.010Z,5.95
2022-09-26T14:13:03.201Z,7.93
2022-09-26T14:18:32.964Z,6.78
2022-09-26T14:23:38.361Z,4.88
2022-09-26T14:28:49.952Z,4.40
2022-09-26T14:34:23.227Z,9.45
2022-09-26T14:39:34.261Z,7.18
2022-09-26T14:44:37.477Z,7.53
2022-09-26T14:49:39.638Z,5.90
2022-09-26T14:54:41.505Z,5.10
2022-09-26T14:59:43.634Z,5.15
2022-09-26T15:04:50.881Z,7.00
2022-09-26T15:09:57.626Z,8.65
2022-09-26T15:15:08.250Z,10.10
2022-09-26T15:20:15.903Z,4.55
2022-09-26T15:25:30.292Z,4.15
2022-09-26T15:30:37.474Z,5.90
2022-09-26T15:35:39.362Z,5.43
2022-09-26T15:40:41.049Z,7.40
2022-09-26T15:45:46.112Z,4.57
2022-09-26T15:51:21.687Z,6.75
2022-09-26T15:56:40.333Z,4.78
2022-09-26T16:01:44.156Z,6.70
2022-09-26T16:07:13.126Z,6.03
2022-09-26T16:12:20.763Z,7.00
2022-09-26T16:17:32.236Z,5.97
2022-09-26T16:22:51.105Z,5.70
2022-09-26T16:28:00.143Z,4.97
2022-09-26T16:33:08.004Z,9.48
2022-09-26T16:38:29.964Z,5.30
2022-09-26T16:43:32.901Z,9.45
2022-09-26T16:48:52.067Z,6.93
2022-09-26T16:54:08.243Z,5.72
2022-09-26T16:59:23.225Z,5.80
2022-09-26T17:04:30.870Z,7.45
2022-09-26T17:09:34.047Z,6.80
2022-09-26T17:14:40.673Z,8.68
2022-09-26T17:19:48.048Z,7.35
2022-09-26T17:24:51.714Z,5.28
2022-09-26T17:29:58.154Z,6.40
2022-09-26T17:35:03.745Z,5.95
2022-09-26T17:40:19.380Z,7.40
2022-09-26T17:45:24.729Z,11.75
2022-09-26T17:50:30.058Z,7.07
2022-09-26T17:55:33.431Z,5.88
2022-09-26T18:00:40.964Z,5.68
2022-09-26T18:05:44.593Z,6.20
2022-09-26T18:10:54.059Z,3.77
2022-09-26T18:15:58.052Z,5.53
2022-09-26T18:21:04.019Z,7.07
2022-09-26T18:26:08.780Z,7.18
2022-09-26T18:31:11.341Z,4.70
2022-09-26T18:36:13.484Z,7.20
2022-09-26T18:41:18.598Z,5.32
2022-09-26T18:46:22.799Z,6.43
2022-09-26T18:51:27.962Z,6.88
2022-09-26T18:56:48.353Z,7.05
2022-09-26T19:01:51.986Z,5.20
2022-09-26T19:07:00.903Z,10.77
2022-09-26T19:12:03.841Z,4.65
2022-09-26T19:17:05.606Z,5.88
2022-09-26T19:22:16.247Z,6.65
2022-09-26T19:27:28.098Z,7.70
2022-09-26T19:32:37.626Z,8.38
2022-09-26T19:37:39.401Z,6.15
2022-09-26T19:42:42.260Z,6.22
2022-09-26T19:47:47.351Z,4.95
2022-09-26T19:52:51.416Z,2.25
2022-09-26T19:57:54.618Z,2.33
2022-09-26T20:02:56.855Z,2.92
2022-09-26T20:07:58.624Z,1.60
2022-09-26T20:13:00.345Z,2.58
2022-09-26T20:18:02.477Z,1.45
2022-09-26T20:23:04.764Z,3.47
2022-09-26T20:28:06.468Z,1.40
2022-09-26T20:33:09.874Z,1.77
2022-09-26T20:38:30.469Z,1.42
2022-09-26T20:43:36.993Z,7.05
2022-09-26T20:48:41.618Z,1.55
2022-09-26T20:53:43.334Z,2.92
2022-09-26T20:58:45.257Z,2.83
2022-09-26T21:03:52.849Z,2.83
2022-09-26T21:08:54.588Z,8.75
2022-09-26T21:13:56.346Z,3.28
2022-09-26T21:18:58.142Z,4.55
2022-09-26T21:24:00.237Z,3.35
2022-09-26T21:29:02.080Z,2.78
2022-09-26T21:34:22.092Z,3.05
2022-09-26T21:39:25.152Z,1.85
2022-09-26T21:44:26.788Z,5.07
2022-09-26T21:49:28.518Z,5.20
2022-09-26T21:54:36.550Z,2.85
2022-09-26T21:59:39.970Z,8.10
2022-09-26T22:04:41.639Z,6.32
2022-09-26T22:09:43.316Z,7.22
2022-09-26T22:14:44.986Z,6.53
2022-09-26T22:19:46.888Z,8.25
2022-09-26T22:24:48.726Z,8.73
2022-09-26T22:29:50.389Z,6.00
2022-09-26T22:34:52.156Z,8.38
2022-09-26T22:39:54.062Z,9.68
2022-09-26T22:44:55.733Z,7.38
2022-09-26T22:49:57.408Z,11.35
2022-09-26T22:54:59.111Z,8.45
2022-09-26T23:00:01.837Z,13.48
2022-09-26T23:05:03.972Z,15.07
2022-09-26T23:10:05.987Z,10.98
2022-09-26T23:15:08.604Z,11.27
2022-09-26T23:20:10.369Z,10.57
2022-09-26T23:25:12.898Z,13.57
2022-09-26T23:30:14.718Z,8.27
2022-09-26T23:35:16.844Z,14.25
2022-09-26T23:40:18.548Z,14.15
2022-09-26T23:45:20.311Z,11.27
2022-09-26T23:50:22.118Z,15.05
2022-09-26T23:55:23.939Z,15.85
